Time;durP1;ratioP1;P1;durP2;ratioP2;P2;SDS_P1;SDS_P2;PMS_P1;PMS_P2;Temp;Humidity;BMP_temperature;BMP_pressure;BME280_temperature;BME280_humidity;BME280_pressure;Samples;Min_cycle;Max_cycle;Signal;HPM_P1;HPM_P2
2024/03/23 00:01:23;;;;;;;27.30;16.60;;;;;;;6.86;67.97;99445.58;105567;1257;61356;-77
2024/03/23 00:03:50;;;;;;;22.70;16.70;;;;;;;6.83;68.15;99441.52;105627;1254;74861;-77
2024/03/23 00:06:18;;;;;;;23.10;16.60;;;;;;;6.81;68.17;99435.08;105602;1254;68842;-78
2024/03/23 00:08:44;;;;;;;25.00;16.00;;;;;;;6.84;68.29;99435.33;105890;1254;72730;-78
2024/03/23 00:11:11;;;;;;;26.10;16.30;;;;;;;6.88;68.23;99429.77;105887;1254;61253;-77
2024/03/23 00:13:38;;;;;;;24.40;16.30;;;;;;;6.85;68.24;99432.60;105881;1257;62691;-79
2024/03/23 00:16:04;;;;;;;24.40;18.00;;;;;;;6.80;68.54;99427.63;106016;1259;74702;-79
2024/03/23 00:18:31;;;;;;;24.90;16.90;;;;;;;6.77;68.63;99417.52;106822;1253;68977;-77
2024/03/23 00:21:00;;;;;;;28.00;15.70;;;;;;;6.74;68.79;99418.34;107318;1257;71488;-79
2024/03/23 00:23:27;;;;;;;24.40;17.30;;;;;;;6.71;69.06;99420.39;106116;1255;61249;-77
2024/03/23 00:25:54;;;;;;;26.90;16.30;;;;;;;6.68;69.19;99418.88;105749;1259;61393;-77
2024/03/23 00:28:21;;;;;;;26.00;16.50;;;;;;;6.73;69.23;99413.30;105816;1258;74962;-78
2024/03/23 00:30:47;;;;;;;26.90;15.00;;;;;;;6.77;69.10;99408.01;105902;1257;61283;-74
2024/03/23 00:33:14;;;;;;;27.30;17.50;;;;;;;6.74;69.19;99409.38;105599;1254;73661;-76
2024/03/23 00:35:40;;;;;;;23.20;17.10;;;;;;;6.71;69.32;99404.21;107394;1255;61250;-76
2024/03/23 00:38:08;;;;;;;22.80;16.10;;;;;;;6.69;69.50;99412.33;108640;1254;59002;-77
2024/03/23 00:40:35;;;;;;;26.20;16.20;;;;;;;6.68;69.42;99405.52;106797;1256;73835;-78
2024/03/23 00:43:02;;;;;;;22.40;15.50;;;;;;;6.68;69.66;99404.63;105806;1254;71060;-75
2024/03/23 00:45:28;;;;;;;21.70;15.40;;;;;;;6.71;69.75;99408.97;105998;1256;73047;-76
2024/03/23 00:47:55;;;;;;;23.00;16.00;;;;;;;6.78;69.53;99405.96;106229;1254;61218;-76
2024/03/23 00:50:21;;;;;;;21.80;14.70;;;;;;;6.78;69.35;99409.14;106171;1254;61392;-74
2024/03/23 00:52:48;;;;;;;20.50;15.20;;;;;;;6.75;69.57;99402.55;106378;1256;75056;-77
2024/03/23 00:55:15;;;;;;;20.40;15.40;;;;;;;6.73;69.69;99395.58;105998;1256;68441;-78
2024/03/23 00:57:41;;;;;;;24.50;17.00;;;;;;;6.71;69.86;99393.95;105829;1259;72846;-77
2024/03/23 01:00:10;;;;;;;19.60;15.00;;;;;;;6.68;69.86;99397.05;106998;1256;61294;-78
2024/03/23 01:02:37;;;;;;;18.30;14.30;;;;;;;6.72;70.02;99391.59;106327;1254;60075;-75
2024/03/23 01:05:04;;;;;;;22.90;16.90;;;;;;;6.79;69.68;99387.89;106180;1258;74841;-78
2024/03/23 01:07:31;;;;;;;19.90;15.30;;;;;;;6.77;69.83;99386.39;105994;1258;70396;-78
2024/03/23 01:09:57;;;;;;;24.20;16.40;;;;;;;6.73;69.88;99385.84;106257;1258;73309;-77
2024/03/23 01:12:24;;;;;;;22.70;16.80;;;;;;;6.70;70.03;99387.62;106083;1261;61250;-76
2024/03/23 01:14:51;;;;;;;21.10;15.90;;;;;;;6.66;70.08;99383.53;105649;1263;61228;-76
2024/03/23 01:17:17;;;;;;;23.50;15.90;;;;;;;6.65;70.21;99389.26;105965;1254;73966;-77
2024/03/23 01:19:44;;;;;;;22.70;16.20;;;;;;;6.71;70.27;99384.32;105930;1253;70746;-76
2024/03/23 01:22:11;;;;;;;21.60;16.10;;;;;;;6.70;70.25;99374.88;105701;1259;73147;-76
2024/03/23 01:24:38;;;;;;;23.70;16.30;;;;;;;6.65;70.42;99372.40;105898;1266;61341;-76
2024/03/23 01:27:04;;;;;;;23.80;17.50;;;;;;;6.60;70.55;99371.86;105842;1260;62432;-77
2024/03/23 01:29:32;;;;;;;27.60;17.00;;;;;;;6.56;70.92;99374.36;107275;1253;73991;-77
2024/03/23 01:31:58;;;;;;;22.50;16.50;;;;;;;6.58;70.86;99366.23;108370;1252;68941;-77
2024/03/23 01:34:25;;;;;;;24.20;16.10;;;;;;;6.65;70.97;99368.67;108713;1257;71358;-78
2024/03/23 01:36:51;;;;;;;21.10;16.10;;;;;;;6.63;70.90;99368.16;107903;1256;61280;-76
2024/03/23 01:39:18;;;;;;;25.20;16.40;;;;;;;6.62;70.92;99365.80;107403;1254;61351;-77
2024/03/23 01:41:45;;;;;;;24.70;16.90;;;;;;;6.60;71.16;99367.30;106844;1256;74648;-77
2024/03/23 01:44:11;;;;;;;27.60;15.80;;;;;;;6.59;71.27;99366.67;106080;1259;71610;-77
2024/03/23 01:46:38;;;;;;;20.70;15.50;;;;;;;6.65;71.35;99364.28;105862;1259;73333;-78
2024/03/23 01:49:05;;;;;;;24.50;16.80;;;;;;;6.70;71.06;99366.66;106598;1254;61387;-76
2024/03/23 01:51:31;;;;;;;26.00;17.20;;;;;;;6.66;71.15;99360.10;107252;1252;61310;-75
2024/03/23 01:54:00;;;;;;;25.60;17.10;;;;;;;6.63;71.33;99360.31;108317;1254;75019;-76
2024/03/23 01:56:27;;;;;;;26.80;17.20;;;;;;;6.61;71.41;99360.36;108722;1256;69096;-77
2024/03/23 01:58:54;;;;;;;24.70;16.40;;;;;;;6.60;71.74;99361.88;107514;1253;71865;-77
2024/03/23 02:01:20;;;;;;;20.10;16.50;;;;;;;6.67;71.80;99357.43;106768;1251;61334;-78
2024/03/23 02:03:47;;;;;;;25.90;16.80;;;;;;;6.69;71.55;99352.63;106171;1253;61344;-79
2024/03/23 02:06:16;;;;;;;27.10;16.40;;;;;;;6.63;71.76;99349.91;107425;1256;73789;-78
2024/03/23 02:08:43;;;;;;;28.30;18.70;;;;;;;6.58;72.03;99341.06;106877;1254;70892;-78
2024/03/23 02:11:11;;;;;;;25.90;15.60;;;;;;;6.56;72.44;99343.58;106451;1254;73236;-75
2024/03/23 02:13:37;;;;;;;21.10;15.50;;;;;;;6.63;72.17;99335.09;108180;1253;61173;-77
2024/03/23 02:16:05;;;;;;;24.60;17.10;;;;;;;6.66;72.31;99336.05;107413;1257;61225;-75
2024/03/23 02:18:33;;;;;;;23.90;16.50;;;;;;;6.62;72.37;99332.39;105711;1257;590071;-77
2024/03/23 02:22:19;;;;;;;24.60;17.80;;;;;;;6.58;72.70;99325.09;102758;1294;601425;-75
2024/03/23 02:24:46;;;;;;;23.70;16.90;;;;;;;6.54;72.81;99328.61;107950;1265;60321;-75
2024/03/23 02:27:13;;;;;;;26.60;17.40;;;;;;;6.61;72.74;99323.52;108214;1266;58723;-75
2024/03/23 02:29:41;;;;;;;23.80;16.70;;;;;;;6.64;72.73;99321.94;105579;1266;72068;-78
2024/03/23 02:32:11;;;;;;;24.50;18.50;;;;;;;6.60;72.84;99323.50;105267;1271;68938;-77
2024/03/23 02:34:38;;;;;;;24.30;18.20;;;;;;;6.55;73.07;99319.95;105662;1264;72764;-74
2024/03/23 02:37:11;;;;;;;20.00;16.60;;;;;;;6.51;73.40;99314.46;105536;1260;205110;-78
2024/03/23 02:39:38;;;;;;;23.00;15.40;;;;;;;6.55;73.39;99316.36;105925;1262;59596;-78
2024/03/23 02:42:06;;;;;;;26.10;16.70;;;;;;;6.58;73.40;99316.02;107411;1260;73038;-76
2024/03/23 02:44:33;;;;;;;22.60;16.20;;;;;;;6.54;73.49;99308.70;107641;1260;68742;-76
2024/03/23 02:47:00;;;;;;;21.80;16.10;;;;;;;6.51;73.66;99303.92;108071;1254;71758;-77
2024/03/23 02:49:27;;;;;;;21.30;16.00;;;;;;;6.47;74.01;99303.89;108233;1253;60417;-77
2024/03/23 02:51:55;;;;;;;21.50;16.10;;;;;;;6.54;73.97;99302.20;108601;1253;60435;-77
2024/03/23 02:54:22;;;;;;;21.10;16.50;;;;;;;6.59;73.83;99298.98;108823;1254;72532;-77
2024/03/23 02:56:50;;;;;;;20.40;16.40;;;;;;;6.56;73.86;99295.16;108963;1253;68725;-76
2024/03/23 02:59:17;;;;;;;21.20;14.90;;;;;;;6.54;74.16;99290.67;108784;1253;71081;-77
2024/03/23 03:01:44;;;;;;;27.10;17.20;;;;;;;6.52;74.35;99295.35;108817;1254;59621;-75
2024/03/23 03:04:12;;;;;;;21.50;15.40;;;;;;;6.60;74.22;99288.61;108202;1253;60303;-76
2024/03/23 03:06:40;;;;;;;23.50;16.50;;;;;;;6.65;74.07;99286.91;107828;1253;72578;-76
2024/03/23 03:09:08;;;;;;;25.30;17.50;;;;;;;6.62;74.12;99281.86;108275;1253;68148;-77
2024/03/23 03:11:37;;;;;;;26.70;17.20;;;;;;;6.58;74.48;99284.98;108201;1253;70619;-77
2024/03/23 03:14:07;;;;;;;22.30;15.90;;;;;;;6.55;74.53;99284.33;107915;1256;60470;-77
2024/03/23 03:16:34;;;;;;;21.20;15.30;;;;;;;6.60;74.50;99280.14;108024;1254;60329;-75
2024/03/23 03:19:02;;;;;;;24.30;15.70;;;;;;;6.61;74.30;99275.20;108654;1253;72563;-77
2024/03/23 03:21:32;;;;;;;24.70;17.30;;;;;;;6.56;74.61;99271.82;108385;1261;67945;-75
2024/03/23 03:23:59;;;;;;;23.70;19.20;;;;;;;6.50;74.84;99268.98;108859;1256;71880;-75
2024/03/23 03:26:26;;;;;;;28.30;17.90;;;;;;;6.51;75.13;99265.76;108795;1256;60384;-77
2024/03/23 03:28:54;;;;;;;20.60;16.10;;;;;;;6.57;75.00;99263.89;108130;1256;59289;-78
2024/03/23 03:31:21;;;;;;;23.60;17.00;;;;;;;6.56;75.04;99260.73;108340;1256;72181;-78
2024/03/23 03:33:49;;;;;;;23.30;18.00;;;;;;;6.49;75.20;99260.53;108450;1256;69089;-77
2024/03/23 03:36:17;;;;;;;26.20;17.70;;;;;;;6.44;75.48;99263.14;108154;1258;71144;-75
2024/03/23 03:38:44;;;;;;;19.60;16.10;;;;;;;6.44;75.53;99258.83;108014;1256;60418;-77
2024/03/23 03:41:11;;;;;;;21.40;16.70;;;;;;;6.49;75.60;99262.05;108138;1256;59079;-77
2024/03/23 03:43:39;;;;;;;27.50;18.80;;;;;;;6.46;75.64;99261.30;108102;1260;72576;-78
2024/03/23 03:46:08;;;;;;;20.00;15.90;;;;;;;6.40;75.77;99260.46;108443;1256;68742;-77
2024/03/23 03:48:35;;;;;;;22.20;17.70;;;;;;;6.38;75.96;99259.85;108605;1256;71249;-79
2024/03/23 03:51:03;;;;;;;24.50;17.50;;;;;;;6.43;75.99;99258.66;108444;1256;60454;-77
2024/03/23 03:53:31;;;;;;;23.60;17.00;;;;;;;6.43;75.93;99257.59;108311;1257;59282;-79
2024/03/23 03:56:02;;;;;;;23.30;17.90;;;;;;;6.38;76.05;99254.87;108383;1256;72626;-78
2024/03/23 03:58:29;;;;;;;24.50;17.30;;;;;;;6.35;76.31;99252.77;108577;1256;69029;-76
2024/03/23 04:00:56;;;;;;;25.70;16.70;;;;;;;6.40;76.31;99252.64;108445;1256;71407;-78
2024/03/23 04:03:23;;;;;;;28.30;18.60;;;;;;;6.43;76.27;99248.06;108690;1256;58855;-77
2024/03/23 04:05:52;;;;;;;24.40;17.70;;;;;;;6.40;76.27;99245.88;108759;1257;58756;-78
2024/03/23 04:08:20;;;;;;;24.90;18.20;;;;;;;6.36;76.56;99250.13;108173;1256;73114;-78
2024/03/23 04:10:48;;;;;;;22.70;17.00;;;;;;;6.40;76.66;99243.27;107573;1256;68726;-75
2024/03/23 04:13:16;;;;;;;24.70;16.80;;;;;;;6.45;76.59;99245.00;107876;1256;70885;-75
2024/03/23 04:15:44;;;;;;;24.00;18.00;;;;;;;6.42;76.73;99251.87;108409;1256;60484;-74
2024/03/23 04:18:11;;;;;;;28.10;17.90;;;;;;;6.37;76.83;99243.88;108747;1262;58969;-77
2024/03/23 04:20:38;;;;;;;29.70;18.50;;;;;;;6.38;77.09;99240.59;108641;1256;72669;-76
2024/03/23 04:23:05;;;;;;;24.80;17.50;;;;;;;6.42;76.90;99231.79;108751;1256;68953;-77
2024/03/23 04:25:33;;;;;;;21.10;17.70;;;;;;;6.46;76.74;99238.58;108537;1257;71103;-77
2024/03/23 04:28:00;;;;;;;26.50;18.10;;;;;;;6.42;77.00;99241.30;108402;1256;59255;-77
2024/03/23 04:30:29;;;;;;;25.90;17.20;;;;;;;6.43;77.19;99235.59;107887;1256;60950;-75
2024/03/23 04:32:58;;;;;;;24.60;17.80;;;;;;;6.48;77.10;99239.42;107951;1256;72350;-76
2024/03/23 04:35:25;;;;;;;26.20;17.90;;;;;;;6.49;76.97;99230.71;107769;1256;68279;-75
2024/03/23 04:37:53;;;;;;;72.50;42.00;;;;;;;6.46;77.30;99236.70;108223;1256;72825;-77
2024/03/23 04:40:21;;;;;;;25.70;18.00;;;;;;;6.46;77.57;99232.23;108165;1256;60302;-76
2024/03/23 04:42:48;;;;;;;24.80;18.90;;;;;;;6.57;77.84;99237.95;107796;1256;59239;-76
2024/03/23 04:45:15;;;;;;;26.90;18.70;;;;;;;6.60;77.55;99231.19;108137;1254;72548;-76
2024/03/23 04:47:43;;;;;;;26.20;18.90;;;;;;;6.59;77.64;99235.63;108466;1254;69237;-75
2024/03/23 04:50:13;;;;;;;25.50;17.80;;;;;;;6.58;77.79;99231.23;108692;1256;71287;-76
2024/03/23 04:52:40;;;;;;;24.50;18.00;;;;;;;6.66;77.62;99231.65;109004;1255;60942;-74
2024/03/23 04:55:09;;;;;;;28.10;20.40;;;;;;;6.70;77.41;99226.02;108157;1254;59199;-76
2024/03/23 04:57:37;;;;;;;26.90;19.20;;;;;;;6.66;77.61;99213.03;108866;1254;72833;-74
2024/03/23 05:00:16;;;;;;;29.10;19.80;;;;;;;6.64;77.78;99206.72;109178;1254;68936;-76
2024/03/23 05:02:53;;;;;;;30.60;24.90;;;;;;;6.73;77.78;99204.44;108923;1256;71234;-79
2024/03/23 05:05:20;;;;;;;27.80;20.90;;;;;;;6.76;77.84;99202.18;109112;1254;58828;-77
2024/03/23 05:07:47;;;;;;;27.40;20.60;;;;;;;6.73;77.92;99198.44;108989;1254;58716;-76
2024/03/23 05:10:15;;;;;;;32.60;19.30;;;;;;;6.74;78.07;99209.98;108778;1254;72378;-77
2024/03/23 05:12:42;;;;;;;29.00;18.80;;;;;;;6.81;77.91;99210.23;108814;1257;68738;-77
2024/03/23 05:15:10;;;;;;;25.60;19.80;;;;;;;6.86;77.75;99211.84;108933;1254;72686;-76
2024/03/23 05:17:37;;;;;;;27.00;20.40;;;;;;;6.83;77.93;99212.68;108701;1254;58878;-78
2024/03/23 05:20:09;;;;;;;29.00;19.40;;;;;;;6.80;78.00;99206.48;107726;1260;60264;-76
2024/03/23 05:22:36;;;;;;;32.10;24.20;;;;;;;6.86;77.98;99211.67;108593;1253;72661;-76
2024/03/23 05:25:04;;;;;;;27.70;21.90;;;;;;;6.90;77.88;99209.94;108673;1254;68826;-75
2024/03/23 05:27:36;;;;;;;27.00;20.60;;;;;;;6.88;78.22;99205.87;108727;1253;71431;-76
2024/03/23 05:30:05;;;;;;;26.80;18.70;;;;;;;6.85;78.14;99207.73;108809;1253;58838;-77
2024/03/23 05:32:33;;;;;;;27.60;20.00;;;;;;;6.91;78.38;99204.48;109092;1253;58686;-79
2024/03/23 05:35:00;;;;;;;31.60;21.50;;;;;;;6.96;78.23;99215.08;108707;1253;72570;-76
2024/03/23 05:37:28;;;;;;;29.10;21.30;;;;;;;6.91;78.56;99204.30;108676;1254;68887;-77
2024/03/23 05:39:55;;;;;;;28.20;19.50;;;;;;;6.93;78.74;99212.66;108640;1254;71054;-77
2024/03/23 05:42:22;;;;;;;27.40;19.70;;;;;;;7.01;78.56;99209.27;108868;1253;60528;-78
2024/03/23 05:44:50;;;;;;;26.20;19.90;;;;;;;7.03;78.24;99209.13;108765;1252;58870;-77
2024/03/23 05:47:17;;;;;;;25.90;20.00;;;;;;;6.99;78.38;99211.80;108535;1254;74117;-78
2024/03/23 05:49:48;;;;;;;26.50;19.10;;;;;;;6.98;78.63;99212.45;108823;1253;69168;-76
2024/03/23 05:52:16;;;;;;;27.80;20.40;;;;;;;7.08;78.31;99206.08;109163;1253;71648;-78
2024/03/23 05:54:43;;;;;;;29.20;20.60;;;;;;;7.12;78.18;99203.06;108761;1253;59165;-76
2024/03/23 05:57:12;;;;;;;26.10;19.30;;;;;;;7.10;78.26;99203.92;108780;1253;58742;-79
2024/03/23 05:59:39;;;;;;;27.50;18.20;;;;;;;7.13;78.35;99206.30;108993;1253;72563;-77
2024/03/23 06:02:07;;;;;;;22.60;18.50;;;;;;;7.24;78.05;99200.70;108658;1253;69024;-76
2024/03/23 06:04:34;;;;;;;26.40;19.10;;;;;;;7.26;77.92;99199.27;108228;1252;71407;-74
2024/03/23 06:07:01;;;;;;;27.80;18.60;;;;;;;7.24;77.86;99201.48;109087;1253;58873;-74
2024/03/23 06:09:31;;;;;;;22.70;17.20;;;;;;;7.25;77.93;99204.96;108974;1252;59272;-73
2024/03/23 06:11:59;;;;;;;23.70;17.30;;;;;;;7.35;77.62;99203.98;108319;1252;75073;-74
2024/03/23 06:14:27;;;;;;;25.60;18.30;;;;;;;7.39;77.75;99197.27;108787;1253;71044;-72
2024/03/23 06:16:54;;;;;;;24.40;17.60;;;;;;;7.39;77.56;99193.55;109175;1252;70638;-74
2024/03/23 06:19:22;;;;;;;21.40;15.90;;;;;;;7.40;77.52;99196.13;108784;1253;59030;-74
2024/03/23 06:21:49;;;;;;;23.90;17.00;;;;;;;7.49;77.51;99196.58;108896;1252;58745;-74
2024/03/23 06:24:16;;;;;;;26.90;18.20;;;;;;;7.55;77.18;99202.31;108937;1252;72633;-73
2024/03/23 06:26:43;;;;;;;27.20;18.50;;;;;;;7.53;77.17;99195.83;108932;1253;68963;-74
2024/03/23 06:29:11;;;;;;;22.00;16.60;;;;;;;7.49;77.11;99198.67;108772;1253;71327;-75
2024/03/23 06:31:39;;;;;;;22.90;16.10;;;;;;;7.55;77.06;99202.42;108774;1253;60409;-74
2024/03/23 06:34:06;;;;;;;22.00;17.20;;;;;;;7.61;76.93;99199.89;108673;1260;61169;-74
2024/03/23 06:36:34;;;;;;;21.40;17.20;;;;;;;7.61;76.80;99207.11;108757;1253;75645;-75
2024/03/23 06:39:01;;;;;;;30.60;18.80;;;;;;;7.57;77.01;99206.29;108630;1260;68988;-76
2024/03/23 06:41:29;;;;;;;24.00;17.50;;;;;;;7.62;76.74;99202.77;108476;1253;71443;-75
2024/03/23 06:43:56;;;;;;;25.80;18.20;;;;;;;7.71;76.59;99210.14;108778;1253;59884;-77
2024/03/23 06:46:23;;;;;;;27.80;19.90;;;;;;;7.70;76.64;99198.08;108709;1253;58897;-76
2024/03/23 06:48:51;;;;;;;30.70;22.00;;;;;;;7.67;76.81;99202.05;108281;1252;76749;-74
2024/03/23 06:51:18;;;;;;;27.10;20.60;;;;;;;7.67;76.64;99204.35;108019;1253;71285;-75
2024/03/23 06:53:45;;;;;;;27.00;19.20;;;;;;;7.75;76.51;99192.03;106241;1253;71490;-75
2024/03/23 06:56:13;;;;;;;22.90;17.90;;;;;;;7.81;76.13;99193.91;106053;1253;61291;-74
2024/03/23 06:58:42;;;;;;;29.20;21.90;;;;;;;7.79;76.24;99194.29;106316;1260;61432;-74
2024/03/23 07:01:09;;;;;;;29.20;21.10;;;;;;;7.75;76.42;99190.25;106223;1253;73579;-73
2024/03/23 07:03:37;;;;;;;23.40;17.90;;;;;;;7.74;76.58;99191.32;107091;1253;71380;-75
2024/03/23 07:06:04;;;;;;;21.40;16.10;;;;;;;7.82;76.54;99187.41;106885;1252;71122;-75
2024/03/23 07:08:31;;;;;;;23.20;16.30;;;;;;;7.86;76.43;99188.21;105876;1253;61228;-76
2024/03/23 07:10:59;;;;;;;23.00;16.60;;;;;;;7.85;76.24;99184.95;105608;1253;61240;-73
2024/03/23 07:13:26;;;;;;;23.30;17.00;;;;;;;7.83;76.15;99180.23;105920;1253;73756;-76
2024/03/23 07:15:55;;;;;;;19.30;15.80;;;;;;;7.83;76.38;99177.66;105476;1253;69991;-74
2024/03/23 07:18:23;;;;;;;19.90;14.60;;;;;;;7.86;76.17;99176.08;105649;1254;72757;-75
2024/03/23 07:20:54;;;;;;;21.00;15.60;;;;;;;7.98;75.86;99178.38;105671;1253;61866;-73
2024/03/23 07:23:22;;;;;;;18.40;14.50;;;;;;;8.04;75.60;99178.16;105915;1258;61145;-74
2024/03/23 07:26:16;;;;;;;25.60;18.50;;;;;;;8.04;75.56;99179.42;105459;1258;73602;-74
2024/03/23 07:28:44;;;;;;;;;;;;;;;8.00;75.56;99177.58;105567;1253;70496;-74
2024/03/23 07:31:15;;;;;;;21.90;16.70;;;;;;;7.98;75.84;99175.10;105784;1253;72140;-75
2024/03/23 07:33:44;;;;;;;19.20;15.40;;;;;;;8.00;75.92;99179.17;105711;1253;61285;-74
2024/03/23 07:36:12;;;;;;;20.90;16.30;;;;;;;8.11;75.50;99175.48;105882;1251;61232;-75
2024/03/23 07:38:44;;;;;;;25.00;15.50;;;;;;;8.19;75.08;99173.20;105775;1253;73861;-74
2024/03/23 07:41:19;;;;;;;19.90;15.60;;;;;;;8.21;75.07;99169.38;105913;1257;69386;-74
2024/03/23 07:43:47;;;;;;;22.00;17.10;;;;;;;8.24;75.07;99167.75;105806;1257;72543;-76
2024/03/23 07:46:15;;;;;;;21.70;16.30;;;;;;;8.34;75.06;99168.08;105740;1258;61254;-75
2024/03/23 07:48:42;;;;;;;20.70;15.30;;;;;;;8.47;74.52;99166.16;105972;1257;61271;-76
2024/03/23 07:51:16;;;;;;;21.30;15.70;;;;;;;8.65;73.89;99171.11;106042;1253;74032;-77
2024/03/23 07:53:44;;;;;;;;;;;;;;;8.79;73.10;99178.52;106572;1253;71659;-74
2024/03/23 07:56:11;;;;;;;26.50;17.00;;;;;;;8.80;73.01;99168.89;106861;1253;71398;-76
2024/03/23 07:58:38;;;;;;;21.10;17.00;;;;;;;8.81;73.11;99171.09;106771;1254;61235;-74
2024/03/23 08:01:10;;;;;;;19.60;16.30;;;;;;;8.83;72.73;99165.69;106022;1257;61125;-75
2024/03/23 08:03:38;;;;;;;23.90;17.80;;;;;;;8.86;72.71;99169.33;105828;1253;74771;-75
2024/03/23 08:06:08;;;;;;;25.30;15.20;;;;;;;8.91;72.82;99157.92;105862;1258;68708;-75
2024/03/23 08:08:35;;;;;;;24.70;15.90;;;;;;;9.09;72.50;99150.33;105345;1253;71390;-74
2024/03/23 08:11:06;;;;;;;21.00;16.50;;;;;;;9.22;72.07;99156.95;105900;1253;61375;-75
2024/03/23 08:13:34;;;;;;;18.90;15.60;;;;;;;9.28;71.64;99146.95;105892;1253;61328;-76
2024/03/23 08:16:03;;;;;;;23.90;17.10;;;;;;;9.33;71.79;99148.80;105857;1259;74700;-74
2024/03/23 08:18:31;;;;;;;23.70;17.40;;;;;;;9.37;71.41;99155.61;105976;1253;68800;-75
2024/03/23 08:21:04;;;;;;;20.60;15.60;;;;;;;9.38;71.16;99154.24;106041;1254;72639;-76
2024/03/23 08:23:35;;;;;;;21.80;17.50;;;;;;;9.35;70.93;99149.42;106115;1259;61270;-76
2024/03/23 08:26:07;;;;;;;33.60;25.00;;;;;;;9.29;71.33;99153.86;106062;1253;61269;-75
2024/03/23 08:28:34;;;;;;;27.40;18.50;;;;;;;9.29;71.50;99152.70;105967;1253;73630;-76
2024/03/23 08:31:05;;;;;;;25.80;18.40;;;;;;;9.28;71.44;99142.70;106039;1253;70591;-76
2024/03/23 08:33:32;;;;;;;23.40;17.60;;;;;;;9.21;71.57;99135.89;106163;1257;70597;-73
2024/03/23 08:36:03;;;;;;;23.50;17.60;;;;;;;9.16;72.08;99132.23;105822;1253;61651;-76
2024/03/23 08:38:31;;;;;;;20.00;15.80;;;;;;;9.14;71.87;99128.46;106079;1252;61337;-76
2024/03/23 08:41:06;;;;;;;20.90;16.20;;;;;;;9.17;72.12;99120.93;105953;1253;75290;-74
2024/03/23 08:43:36;;;;;;;22.70;17.20;;;;;;;9.26;72.01;99118.56;105949;1258;68959;-74
2024/03/23 08:46:12;;;;;;;21.60;15.60;;;;;;;9.45;71.54;99125.34;105647;1253;73978;-76
2024/03/23 08:48:43;;;;;;;24.10;16.90;;;;;;;9.55;71.14;99120.00;105849;1258;61180;-75
2024/03/23 08:51:12;;;;;;;23.70;18.20;;;;;;;9.58;71.06;99119.77;106953;1254;62475;-74
2024/03/23 08:53:39;;;;;;;21.70;16.80;;;;;;;9.64;70.93;99111.64;107023;1256;74670;-73
2024/03/23 08:56:07;;;;;;;21.30;16.50;;;;;;;9.72;70.50;99108.64;105917;1258;68541;-75
2024/03/23 08:58:35;;;;;;;24.20;18.20;;;;;;;9.77;70.52;99110.86;105956;1253;74775;-74
2024/03/23 09:01:04;;;;;;;19.90;15.70;;;;;;;9.80;70.48;99111.92;105859;1256;61347;-73
2024/03/23 09:03:36;;;;;;;23.40;18.70;;;;;;;9.81;70.20;99104.91;105902;1256;61227;-76
2024/03/23 09:06:08;;;;;;;23.70;16.90;;;;;;;9.85;70.38;99105.91;105921;1258;75773;-75
2024/03/23 09:08:36;;;;;;;22.60;17.00;;;;;;;9.98;69.79;99097.96;106127;1258;67964;-73
2024/03/23 09:11:06;;;;;;;22.10;16.30;;;;;;;10.05;69.64;99101.26;105958;1256;75238;-76
2024/03/23 09:13:34;;;;;;;24.10;18.90;;;;;;;10.07;70.05;99087.63;105840;1258;61229;-76
2024/03/23 09:16:01;;;;;;;24.10;19.50;;;;;;;10.10;69.82;99091.37;105797;1252;61331;-76
2024/03/23 09:18:31;;;;;;;21.10;17.50;;;;;;;10.14;69.83;99087.80;105811;1253;76844;-76
2024/03/23 09:20:59;;;;;;;27.80;18.90;;;;;;;10.20;69.63;99083.23;105992;1257;70863;-77
2024/03/23 09:23:26;;;;;;;23.10;17.70;;;;;;;10.29;69.70;99076.11;105974;1254;73520;-75
2024/03/23 09:25:53;;;;;;;24.90;19.00;;;;;;;10.43;69.38;99081.45;105904;1253;62315;-76
2024/03/23 09:28:21;;;;;;;27.70;19.60;;;;;;;10.54;68.78;99072.10;105764;1260;61138;-73
2024/03/23 09:30:48;;;;;;;25.80;19.20;;;;;;;10.68;68.72;99072.63;105736;1253;74791;-75
2024/03/23 09:33:15;;;;;;;23.50;17.60;;;;;;;10.79;68.38;99069.13;105964;1253;72502;-73
2024/03/23 09:35:44;;;;;;;27.40;19.70;;;;;;;10.88;67.99;99065.02;105924;1257;72905;-75
2024/03/23 09:38:12;;;;;;;22.30;17.90;;;;;;;10.93;67.62;99074.67;106095;1256;62366;-76
2024/03/23 09:40:42;;;;;;;24.70;18.80;;;;;;;10.94;67.80;99059.02;105828;1253;61122;-75
2024/03/23 09:43:10;;;;;;;21.50;17.60;;;;;;;10.96;67.53;99059.64;105954;1253;76923;-76
2024/03/23 09:45:41;;;;;;;24.00;18.70;;;;;;;10.97;67.38;99061.48;106673;1258;72297;-75
2024/03/23 09:48:11;;;;;;;23.00;19.30;;;;;;;10.98;67.37;99060.33;107595;1254;72789;-75
2024/03/23 09:50:39;;;;;;;29.10;20.20;;;;;;;11.00;67.61;99045.27;106349;1253;61423;-75
2024/03/23 09:53:07;;;;;;;27.70;21.10;;;;;;;11.09;67.45;99044.21;105975;1258;61351;-75
2024/03/23 09:55:38;;;;;;;25.50;19.10;;;;;;;11.20;66.97;99043.22;106081;1256;73378;-73
2024/03/23 09:58:05;;;;;;;21.20;17.50;;;;;;;11.30;66.74;99048.30;105980;1253;70462;-76
2024/03/23 10:00:33;;;;;;;20.40;17.70;;;;;;;11.36;66.51;99045.88;106169;1256;73649;-76
2024/03/23 10:03:04;;;;;;;23.50;17.10;;;;;;;11.41;66.41;99038.38;106510;1257;61339;-74
2024/03/23 10:05:36;;;;;;;20.10;17.10;;;;;;;11.46;66.22;99050.25;106525;1253;61382;-76
2024/03/23 10:08:14;;;;;;;28.00;22.30;;;;;;;11.52;65.88;99042.41;106365;1253;76860;-75
2024/03/23 10:10:41;;;;;;;26.60;20.80;;;;;;;11.59;65.58;99043.50;106237;1253;70723;-75
2024/03/23 10:13:09;;;;;;;31.20;21.50;;;;;;;11.66;65.62;99033.45;106296;1254;73213;-76
2024/03/23 10:15:36;;;;;;;30.10;20.20;;;;;;;11.73;65.22;99029.77;106243;1253;61240;-75
2024/03/23 10:18:23;;;;;;;27.10;19.60;;;;;;;11.80;64.99;99031.34;106233;1253;61891;-76
2024/03/23 10:21:08;;;;;;;24.80;17.90;;;;;;;11.84;64.72;99017.23;106299;1258;76042;-76
2024/03/23 10:23:36;;;;;;;22.10;17.70;;;;;;;11.88;64.30;99012.08;106352;1253;70312;-75
2024/03/23 10:26:27;;;;;;;26.70;19.20;;;;;;;11.92;64.22;99009.05;106383;1260;74727;-76
2024/03/23 10:29:01;;;;;;;23.40;17.40;;;;;;;12.00;64.10;99003.33;106638;1257;61106;-76
2024/03/23 10:31:31;;;;;;;23.00;17.20;;;;;;;12.08;63.84;99011.91;106491;1258;62282;-76
2024/03/23 10:34:00;;;;;;;22.30;17.60;;;;;;;12.11;63.53;99007.54;106347;1253;75778;-75
2024/03/23 10:36:28;;;;;;;38.10;26.70;;;;;;;12.14;63.56;99009.16;106489;1258;68903;-77
2024/03/23 10:38:55;;;;;;;28.80;22.40;;;;;;;12.16;63.46;99011.75;106579;1253;72532;-77
2024/03/23 10:41:22;;;;;;;29.60;21.50;;;;;;;12.17;63.52;98999.59;107027;1253;61140;-79
2024/03/23 10:43:50;;;;;;;31.80;21.50;;;;;;;12.24;63.67;98993.88;108066;1257;62159;-75
2024/03/23 10:46:17;;;;;;;35.90;20.30;;;;;;;12.37;63.62;98986.83;107247;1253;73584;-75
2024/03/23 10:48:45;;;;;;;31.10;21.70;;;;;;;12.52;63.17;98989.63;107096;1253;72153;-74
2024/03/23 10:51:12;;;;;;;23.50;20.20;;;;;;;12.59;62.37;98983.30;106768;1256;75058;-75
2024/03/23 10:53:40;;;;;;;34.60;21.90;;;;;;;12.64;62.44;98978.80;106279;1260;61197;-77
2024/03/23 10:56:07;;;;;;;29.40;19.40;;;;;;;12.67;62.49;98965.21;106574;1253;61151;-76
2024/03/23 10:58:40;;;;;;;24.70;17.30;;;;;;;12.73;62.41;98962.68;106679;1253;73144;-77
2024/03/23 11:01:15;;;;;;;20.30;16.50;;;;;;;12.82;61.61;98968.62;106842;1261;71296;-78
2024/03/23 11:03:46;;;;;;;23.00;18.20;;;;;;;12.84;61.61;98964.46;106389;1255;74683;-77
2024/03/23 11:06:33;;;;;;;19.90;16.40;;;;;;;12.88;61.34;98968.66;106494;1253;61801;-75
2024/03/23 11:09:01;;;;;;;18.30;15.30;;;;;;;12.85;61.53;98958.65;106502;1253;63770;-73
2024/03/23 11:11:31;;;;;;;16.00;13.70;;;;;;;12.81;61.19;98954.92;106257;1253;74172;-77
2024/03/23 11:13:59;;;;;;;16.40;13.60;;;;;;;12.82;60.36;98943.88;106228;1258;69406;-75
2024/03/23 11:16:31;;;;;;;13.40;11.70;;;;;;;12.86;60.49;98936.75;106436;1253;72669;-76
2024/03/23 11:19:33;;;;;;;21.90;15.00;;;;;;;12.89;60.61;98947.21;106016;1255;59624;-78
2024/03/23 11:22:01;;;;;;;18.70;12.70;;;;;;;12.87;60.55;98946.23;106276;1253;61411;-78
2024/03/23 11:24:28;;;;;;;22.90;13.50;;;;;;;12.84;60.53;98944.51;106226;1252;74699;-77